Terminal Aerodrome Forecast
Issued by NWS

Home | Current Version | Previous Version | Text Only | Print | Product List | Glossary On
Versions: 1 2 3 4 5 6 7 8 9 10 11 12 13 14 15 16
000
FTUS45 KABQ 301738
TAFROW
TAF
KROW 301738Z 3018/3118 16011KT P6SM VCTS SCT070CB BKN150
      TEMPO 3018/3019 VRB15G25KT -SHRA BKN070
     FM301930 17015KT P6SM SCT080 SCT150
     FM302300 14014KT P6SM VCTS SCT070CB BKN140
     FM310200 22010KT P6SM SCT090 BKN150
     FM310500 15011KT P6SM SCT100 BKN200=

USA.gov is the U.S. government's official web portal to all federal, state and local government web resources and services.